首页
METAR-TAF:

METAR-TAF

机场 :

伊斯坦布尔 阿塔土克, 土耳其

阿塔蒂尔克国际机场

纬度: 40-58N, 经度: 028-49E, 海拔: 48米

当前天气观测

该预报发布于21分钟前的01:20 UTC
风速6节,风向西
温度 3°C
湿度 65%
气压 1014 hPa
能见度10公里或以上
1500米以下无云,无积雨云

METAR: LTBA 190120Z 26006KT CAVOK 03/M03 Q1014 NOSIG RMK RWY17L 25006KT 200V280 RWY05 26006KT RWY23 27009KT

时间: 04:41 (01:41 UTC)

预报

该预报发布于3小时和1分钟前的22:40 UTC
预报有效从19日的 00点(UTC)到 20日的 06点(UTC)
风速8节,风向西
能见度10公里或以上
1500米以下无云,无积雨云
成为
从 19日的 07点(UTC)到 19日的 10点(UTC)
风速15节,风向南转西南
散云层高于3000英尺

TAF: LTBA 182240Z 1900/2006 28008KT CAVOK BECMG 1907/1910 20015KT SCT030

超过4000个机场的气象观测和天气预报(METAR&TAF报告)。

可查询的气象台以黄色和红色小点在地图上表示。

将鼠标移到小点上方,可查看气象台名称。

然后点击查看天气观测和预报。

如需切换地图:点击带黑十字的绿色按钮放大地图;点击带横线的绿色按钮缩小地图;或者点击绿色箭头查看邻近地区的地图。


METAR-TAF: